Time;durP1;ratioP1;P1;durP2;ratioP2;P2;SDS_P1;SDS_P2;PMS_P1;PMS_P2;Temp;Humidity;BMP_temperature;BMP_pressure;BME280_temperature;BME280_humidity;BME280_pressure;Samples;Min_cycle;Max_cycle;Signal;HPM_P1;HPM_P2
2021/12/16 00:01:51;;;;;;;20.30;13.27;;;;;;;7.45;90.18;99867.34;5096259;28;20629;-88
2021/12/16 00:07:28;;;;;;;20.03;13.17;;;;;;;7.45;90.01;99870.78;5067976;28;20673;-88
2021/12/16 00:10:02;;;;;;;20.07;12.60;;;;;;;7.44;89.85;99871.66;5057357;28;20631;-89
2021/12/16 00:29:55;;;;;;;20.27;14.27;;;;;;;7.45;90.79;99856.97;5089317;28;20638;-88
2021/12/16 00:32:36;;;;;;;19.90;13.23;;;;;;;7.45;89.59;99841.41;5071291;28;20632;-88
2021/12/16 00:35:06;;;;;;;18.40;11.90;;;;;;;7.44;89.70;99850.06;5084551;28;20730;-87
2021/12/16 00:37:35;;;;;;;19.57;13.27;;;;;;;7.41;90.17;99850.16;5072472;28;20658;-88
2021/12/16 00:40:08;;;;;;;21.37;13.47;;;;;;;7.40;89.12;99854.50;5086646;28;20678;-88
2021/12/16 00:42:44;;;;;;;17.80;12.70;;;;;;;7.37;90.66;99858.94;5072455;28;20642;-88
2021/12/16 00:45:36;;;;;;;19.50;13.20;;;;;;;7.37;89.87;99857.19;5069806;28;20677;-88
2021/12/16 00:48:20;;;;;;;17.67;12.17;;;;;;;7.39;89.80;99852.78;5068088;28;21709;-88
2021/12/16 00:56:24;;;;;;;19.57;12.27;;;;;;;7.35;90.67;99865.88;5066710;28;20630;-88
2021/12/16 00:58:56;;;;;;;21.20;13.07;;;;;;;7.37;89.17;99864.13;5072020;28;20740;-88
2021/12/16 01:01:38;;;;;;;19.40;12.50;;;;;;;7.36;90.16;99863.25;5071928;28;20733;-88
2021/12/16 01:04:42;;;;;;;20.43;12.40;;;;;;;7.38;89.57;99865.81;5083874;28;21215;-88
2021/12/16 01:07:39;;;;;;;17.90;11.63;;;;;;;7.37;89.66;99858.94;5075706;28;21057;-88
2021/12/16 01:35:30;;;;;;;16.47;10.50;;;;;;;7.34;90.71;99877.19;5084882;28;20722;-88
2021/12/16 01:41:17;;;;;;;20.30;11.33;;;;;;;7.33;91.01;99878.06;5069015;28;21439;-88
2021/12/16 01:49:47;;;;;;;23.73;12.67;;;;;;;7.29;91.02;99889.41;5044362;28;20633;-88
2021/12/16 01:55:12;;;;;;;20.30;11.90;;;;;;;7.30;90.58;99881.56;5074034;28;21073;-88
2021/12/16 01:57:46;;;;;;;19.10;12.10;;;;;;;7.31;90.05;99875.50;5080946;28;20625;-88
2021/12/16 02:00:18;;;;;;;16.63;11.07;;;;;;;7.34;89.95;99884.97;5062718;28;20631;-88
2021/12/16 02:02:49;;;;;;;21.77;13.00;;;;;;;7.34;90.83;99880.63;5085243;28;20631;-88
2021/12/16 02:05:31;;;;;;;18.27;12.40;;;;;;;7.33;91.51;99881.50;5074239;28;20665;-88
2021/12/16 02:08:20;;;;;;;17.43;11.30;;;;;;;7.35;90.74;99874.53;5087223;28;20692;-88
2021/12/16 02:11:06;;;;;;;18.40;12.60;;;;;;;7.36;90.27;99871.03;5072220;28;20913;-88
2021/12/16 02:27:48;;;;;;;19.00;12.43;;;;;;;7.34;90.73;99872.81;5073362;28;20751;-88
2021/12/16 02:33:21;;;;;;;16.63;10.30;;;;;;;7.33;90.60;99876.31;5083990;28;20718;-89
2021/12/16 02:36:00;;;;;;;17.43;11.60;;;;;;;7.33;92.10;99865.09;5064944;28;20647;-88
2021/12/16 02:38:33;;;;;;;17.80;11.00;;;;;;;7.32;91.43;99872.03;5099840;28;20726;-88
2021/12/16 02:41:02;;;;;;;16.37;10.70;;;;;;;7.32;90.76;99871.16;5074493;28;20632;-88
2021/12/16 02:49:03;;;;;;;18.50;11.57;;;;;;;7.31;90.67;99859.94;5067629;28;20638;-88
2021/12/16 02:51:35;;;;;;;17.83;11.60;;;;;;;7.31;92.06;99865.13;5086509;28;20650;-88
2021/12/16 02:54:06;;;;;;;18.10;11.13;;;;;;;7.31;90.78;99862.53;5077462;28;20637;-88
2021/12/16 02:56:36;;;;;;;20.70;11.77;;;;;;;7.32;90.98;99863.38;5069901;28;21228;-88
2021/12/16 02:59:05;;;;;;;17.10;11.03;;;;;;;7.31;90.70;99864.28;5083488;28;20627;-88
2021/12/16 03:01:39;;;;;;;19.10;11.87;;;;;;;7.31;90.83;99867.72;5077436;28;20625;-88
2021/12/16 03:04:12;;;;;;;17.27;10.80;;;;;;;7.32;90.42;99868.56;5081247;28;20668;-88
2021/12/16 03:06:45;;;;;;;17.90;11.17;;;;;;;7.31;90.50;99865.13;5083545;28;20753;-88
2021/12/16 03:09:20;;;;;;;18.40;11.60;;;;;;;7.30;90.29;99866.00;5088238;28;21224;-88
2021/12/16 03:12:14;;;;;;;19.40;11.57;;;;;;;7.31;90.78;99865.13;5068500;28;20650;-88
2021/12/16 03:14:44;;;;;;;18.00;11.70;;;;;;;7.31;90.60;99866.88;5086630;28;21204;-88
2021/12/16 03:17:19;;;;;;;16.80;10.90;;;;;;;7.29;91.01;99861.72;5068761;28;20641;-88
2021/12/16 03:19:59;;;;;;;20.40;11.40;;;;;;;7.27;90.03;99868.69;5067469;28;20637;-88
2021/12/16 03:22:49;;;;;;;18.10;11.33;;;;;;;7.29;90.84;99866.91;5083141;28;21203;-88
2021/12/16 03:25:25;;;;;;;21.10;12.00;;;;;;;7.26;90.39;99867.00;5072102;28;20648;-88
2021/12/16 03:28:31;;;;;;;17.13;10.00;;;;;;;7.24;90.55;99868.75;5066562;28;20721;-88
2021/12/16 03:31:24;;;;;;;17.43;11.07;;;;;;;7.24;90.31;99868.75;5068433;28;20616;-88
2021/12/16 03:34:14;;;;;;;22.50;10.70;;;;;;;7.24;90.48;99868.75;5070977;28;20675;-88
2021/12/16 03:37:12;;;;;;;20.30;11.17;;;;;;;7.23;90.07;99877.47;5068399;28;20672;-88
2021/12/16 03:39:44;;;;;;;16.67;9.80;;;;;;;7.23;90.15;99882.66;5081713;28;20640;-88
2021/12/16 03:42:16;;;;;;;16.87;10.67;;;;;;;7.23;89.80;99881.78;5083065;28;20656;-88
2021/12/16 03:44:54;;;;;;;16.93;10.80;;;;;;;7.23;90.60;99874.00;5069264;28;20646;-88
2021/12/16 03:47:36;;;;;;;16.10;10.33;;;;;;;7.23;90.82;99884.38;5064149;28;20662;-88
2021/12/16 03:50:08;;;;;;;15.70;10.17;;;;;;;7.19;90.15;99886.22;5061375;28;20645;-88
2021/12/16 03:52:37;;;;;;;18.37;10.87;;;;;;;7.21;90.85;99879.22;5089512;28;20630;-88
2021/12/16 03:55:08;;;;;;;17.67;10.43;;;;;;;7.19;91.05;99881.03;5070854;28;20621;-88
2021/12/16 03:57:39;;;;;;;15.63;10.10;;;;;;;7.19;90.98;99881.03;5093923;28;20988;-88
2021/12/16 04:00:15;;;;;;;17.50;10.97;;;;;;;7.18;90.68;99883.66;5070688;28;20690;-88
2021/12/16 04:02:55;;;;;;;16.13;10.07;;;;;;;7.16;90.07;99875.91;5070510;28;20640;-88
2021/12/16 04:05:29;;;;;;;16.43;10.50;;;;;;;7.14;90.39;99882.88;5072443;28;21228;-88
2021/12/16 04:08:02;;;;;;;16.57;10.17;;;;;;;7.13;90.32;99880.34;5070205;28;20672;-88
2021/12/16 04:10:44;;;;;;;16.07;9.87;;;;;;;7.11;89.96;99888.16;5082908;28;20999;-88
2021/12/16 04:13:18;;;;;;;13.60;9.43;;;;;;;7.04;90.33;99885.75;5085584;28;20728;-88
2021/12/16 04:15:52;;;;;;;14.37;8.87;;;;;;;6.96;89.48;99895.47;5071567;28;20659;-88
2021/12/16 04:18:21;;;;;;;14.73;9.50;;;;;;;6.97;89.92;99893.72;5085770;28;20638;-88
2021/12/16 04:20:51;;;;;;;12.97;8.50;;;;;;;7.00;89.91;99893.66;5085945;28;20643;-88
2021/12/16 04:23:19;;;;;;;15.03;9.37;;;;;;;6.98;89.80;99892.84;5067384;28;20697;-88
2021/12/16 04:25:49;;;;;;;15.10;8.90;;;;;;;6.98;91.28;99893.69;5064454;28;20662;-88
2021/12/16 04:28:20;;;;;;;15.60;9.67;;;;;;;6.97;90.81;99898.91;5073340;28;20630;-88
2021/12/16 04:30:52;;;;;;;15.10;9.87;;;;;;;6.97;90.06;99888.53;5063576;28;21182;-88
2021/12/16 04:33:25;;;;;;;16.50;9.97;;;;;;;6.96;90.64;99892.03;5066626;28;20639;-88
2021/12/16 04:35:54;;;;;;;15.57;9.70;;;;;;;6.95;90.78;99887.75;5067540;28;20660;-87
2021/12/16 04:38:23;;;;;;;18.97;10.23;;;;;;;6.92;89.80;99891.25;5065260;28;20635;-87
2021/12/16 04:40:52;;;;;;;17.80;10.30;;;;;;;6.88;90.71;99888.78;5064958;28;21184;-87
2021/12/16 04:43:33;;;;;;;17.83;11.00;;;;;;;6.89;90.62;99882.72;5070612;28;21182;-88
2021/12/16 04:46:08;;;;;;;17.57;10.10;;;;;;;6.90;90.44;99885.25;5064234;28;21796;-87
2021/12/16 04:48:37;;;;;;;14.27;9.67;;;;;;;6.86;91.12;99887.97;5068787;28;20730;-88
2021/12/16 04:51:09;;;;;;;15.60;10.03;;;;;;;6.84;91.20;99897.50;5067816;28;21209;-88
2021/12/16 04:53:41;;;;;;;16.57;10.13;;;;;;;6.87;90.03;99900.91;5066492;28;20654;-87
2021/12/16 04:56:12;;;;;;;16.37;9.43;;;;;;;6.90;89.86;99897.34;5069992;28;20688;-88
2021/12/16 04:58:58;;;;;;;13.70;9.00;;;;;;;6.88;90.02;99894.81;5075187;28;20666;-87
2021/12/16 05:01:28;;;;;;;15.93;9.60;;;;;;;6.85;89.47;99888.84;5073403;28;20643;-88
2021/12/16 05:03:56;;;;;;;18.03;9.20;;;;;;;6.84;90.47;99887.13;5069618;28;21216;-88
2021/12/16 05:06:29;;;;;;;15.07;9.00;;;;;;;6.89;91.32;99898.28;5066639;28;20699;-88
2021/12/16 05:08:58;;;;;;;16.10;10.40;;;;;;;6.92;91.03;99893.84;5077193;28;20646;-88
2021/12/16 05:11:34;;;;;;;18.77;10.37;;;;;;;6.97;90.09;99894.56;5075056;28;21192;-88
2021/12/16 05:14:06;;;;;;;16.93;10.13;;;;;;;6.99;91.02;99899.72;5064403;28;20632;-88
2021/12/16 05:16:37;;;;;;;16.30;10.03;;;;;;;7.03;90.11;99909.97;5088992;28;20659;-88
2021/12/16 05:19:06;;;;;;;12.87;8.97;;;;;;;7.06;89.71;99907.31;5080601;28;21232;-88
2021/12/16 05:21:48;;;;;;;15.30;10.20;;;;;;;7.04;90.43;99903.91;5089688;28;20630;-88
2021/12/16 05:24:27;;;;;;;15.17;9.67;;;;;;;7.06;91.45;99910.75;5083299;28;21427;-88
2021/12/16 05:27:09;;;;;;;16.20;9.60;;;;;;;7.06;89.99;99913.34;5066690;28;20638;-87
2021/12/16 05:29:43;;;;;;;14.73;9.60;;;;;;;7.06;90.86;99921.13;5067916;28;20729;-88
2021/12/16 05:32:13;;;;;;;17.07;10.60;;;;;;;7.08;90.95;99929.75;5066546;28;21202;-87
2021/12/16 05:34:42;;;;;;;14.70;9.60;;;;;;;7.11;91.10;99926.19;5081359;28;20621;-88
2021/12/16 05:37:10;;;;;;;15.00;9.67;;;;;;;7.14;91.45;99932.19;5081634;28;21127;-88
2021/12/16 05:39:41;;;;;;;16.73;10.63;;;;;;;7.16;90.82;99942.53;5069141;28;20728;-87
2021/12/16 05:42:30;;;;;;;14.93;10.07;;;;;;;7.12;90.50;99944.31;5054672;28;20747;-88
2021/12/16 05:45:00;;;;;;;18.37;10.93;;;;;;;7.14;91.08;99942.56;5071852;28;20632;-88
2021/12/16 05:47:28;;;;;;;20.73;9.83;;;;;;;7.16;90.01;99947.72;5069393;28;20690;-87
2021/12/16 05:49:59;;;;;;;13.20;8.90;;;;;;;7.18;90.95;99951.09;5084158;28;20642;-88
2021/12/16 05:52:27;;;;;;;17.10;10.60;;;;;;;7.17;89.73;99960.63;5074408;28;20651;-88
2021/12/16 05:54:56;;;;;;;15.90;10.50;;;;;;;7.16;90.19;99958.94;5081277;28;20631;-89
2021/12/16 05:57:46;;;;;;;15.80;10.60;;;;;;;7.14;90.60;99960.72;5084677;28;20650;-89
2021/12/16 06:00:21;;;;;;;16.13;9.80;;;;;;;7.14;90.32;99968.50;5065531;28;20720;-89
2021/12/16 06:02:50;;;;;;;15.90;9.47;;;;;;;7.14;90.51;99957.25;5088172;28;20614;-88
2021/12/16 06:05:19;;;;;;;18.57;10.47;;;;;;;7.12;90.76;99957.28;5066900;28;21051;-88
2021/12/16 06:07:51;;;;;;;14.60;9.10;;;;;;;7.13;90.66;99961.59;5084059;28;20661;-88
2021/12/16 06:10:55;;;;;;;14.70;9.10;;;;;;;7.14;90.66;99965.91;5069089;28;20641;-88
2021/12/16 06:13:17;;;;;;;14.87;9.73;;;;;;;7.11;90.64;99973.75;5077347;28;20616;-88
2021/12/16 06:16:01;;;;;;;18.40;10.90;;;;;;;7.15;90.39;99969.34;5097733;28;20650;-88
2021/12/16 06:27:05;;;;;;;18.57;10.40;;;;;;;7.08;91.19;99960.88;5074861;28;20631;-89
2021/12/16 06:29:34;;;;;;;17.87;10.20;;;;;;;7.06;90.79;99954.00;5085029;28;20644;-89
2021/12/16 06:32:05;;;;;;;18.77;10.23;;;;;;;7.06;91.09;99959.19;5103660;28;20637;-89
2021/12/16 06:34:33;;;;;;;15.90;9.70;;;;;;;7.06;90.32;99960.03;5084581;28;20632;-88
2021/12/16 06:37:02;;;;;;;14.07;9.83;;;;;;;7.06;90.45;99961.78;5066693;28;20643;-88
2021/12/16 06:39:31;;;;;;;17.50;10.90;;;;;;;7.06;89.80;99957.44;5069636;28;20706;-89
2021/12/16 06:42:18;;;;;;;16.53;9.63;;;;;;;7.07;90.17;99963.50;5096523;28;20719;-89
2021/12/16 06:44:56;;;;;;;16.33;10.10;;;;;;;7.06;89.97;99957.44;5063836;28;20661;-89
2021/12/16 06:47:32;;;;;;;14.97;9.00;;;;;;;7.08;90.65;99966.06;5063012;28;20733;-90
2021/12/16 06:50:00;;;;;;;15.63;10.30;;;;;;;7.11;90.89;99973.75;5070916;28;20689;-89
2021/12/16 06:52:35;;;;;;;15.03;9.33;;;;;;;7.11;90.67;99971.16;5077710;28;20739;-89
2021/12/16 06:55:11;;;;;;;15.80;9.70;;;;;;;7.12;89.82;99965.06;5099357;28;20639;-89
2021/12/16 06:57:44;;;;;;;15.93;10.27;;;;;;;7.14;89.97;99960.72;5083496;28;20649;-88
2021/12/16 07:00:28;;;;;;;19.07;10.30;;;;;;;7.18;90.98;99977.88;5078675;28;20673;-88
2021/12/16 07:03:00;;;;;;;19.97;10.07;;;;;;;7.15;89.32;99980.56;5078759;28;20627;-89
2021/12/16 07:05:32;;;;;;;17.90;10.50;;;;;;;7.12;89.14;99982.38;5082983;28;21258;-89
2021/12/16 07:08:01;;;;;;;13.83;8.83;;;;;;;7.13;90.72;99979.75;5076817;28;20673;-89
2021/12/16 07:10:30;;;;;;;14.37;9.80;;;;;;;7.11;90.02;99991.91;5068319;28;20630;-89
2021/12/16 07:13:06;;;;;;;16.90;10.60;;;;;;;7.13;90.86;99989.28;5100006;28;20630;-88
2021/12/16 07:15:35;;;;;;;18.50;10.30;;;;;;;7.11;89.96;99986.72;5063820;28;20630;-89
2021/12/16 07:18:05;;;;;;;16.10;10.27;;;;;;;7.13;90.53;99997.91;5065872;28;20661;-89
2021/12/16 07:20:34;;;;;;;14.63;9.57;;;;;;;7.13;90.90;99992.72;5113702;27;20691;-89
2021/12/16 07:23:05;;;;;;;16.93;10.30;;;;;;;7.16;89.89;99999.59;5066010;28;20966;-88
2021/12/16 07:25:34;;;;;;;15.10;10.03;;;;;;;7.16;89.92;99999.59;5078790;28;21036;-88
2021/12/16 07:28:07;;;;;;;17.20;11.23;;;;;;;7.15;90.31;99998.72;5076951;28;20665;-89
2021/12/16 07:30:40;;;;;;;20.13;11.37;;;;;;;7.16;90.73;99999.59;5084127;28;20648;-90
2021/12/16 07:33:12;;;;;;;20.87;13.10;;;;;;;7.15;88.97;100003.91;5061826;28;20636;-90
2021/12/16 07:35:41;;;;;;;17.97;10.97;;;;;;;7.15;88.94;100000.47;5082959;27;20640;-90
2021/12/16 07:38:13;;;;;;;16.37;10.17;;;;;;;7.12;88.95;100003.97;5077945;28;20752;-90
2021/12/16 07:40:44;;;;;;;14.77;10.03;;;;;;;7.09;89.77;100011.84;5084396;28;20657;-91
2021/12/16 07:43:40;;;;;;;15.50;10.07;;;;;;;7.09;90.28;100013.59;5079949;28;20655;-90
2021/12/16 07:46:09;;;;;;;21.60;10.93;;;;;;;7.11;90.46;100016.97;5082332;28;20670;-90
2021/12/16 07:48:39;;;;;;;17.73;10.90;;;;;;;7.10;90.76;100017.91;5064378;28;20678;-89
2021/12/16 07:51:08;;;;;;;16.00;11.10;;;;;;;7.10;91.16;100021.34;5073895;28;21381;-90
2021/12/16 07:53:36;;;;;;;19.83;11.60;;;;;;;7.11;90.58;100020.44;5062589;28;20626;-90
2021/12/16 07:56:05;;;;;;;19.50;12.23;;;;;;;7.15;90.35;100018.63;5077105;28;20635;-88
2021/12/16 07:58:34;;;;;;;18.03;11.70;;;;;;;7.18;89.84;100029.78;5093139;28;20651;-89
2021/12/16 08:01:04;;;;;;;19.20;12.27;;;;;;;7.18;90.35;100029.78;5073387;28;20638;-91
2021/12/16 08:03:36;;;;;;;18.73;11.70;;;;;;;7.21;89.45;100037.47;5059234;28;20603;-90
2021/12/16 08:06:09;;;;;;;18.37;12.13;;;;;;;7.22;90.16;100040.97;5060709;28;20708;-91
2021/12/16 08:08:38;;;;;;;19.00;12.57;;;;;;;7.18;90.18;100040.16;5075579;28;20603;-90
2021/12/16 08:11:08;;;;;;;19.30;12.10;;;;;;;7.17;89.89;100046.25;5060159;28;20642;-90
2021/12/16 08:13:36;;;;;;;20.03;12.97;;;;;;;7.20;89.83;100038.41;5078712;28;20663;-90
2021/12/16 08:16:05;;;;;;;19.43;12.10;;;;;;;7.22;90.69;100041.78;5070462;28;20634;-91
2021/12/16 08:18:33;;;;;;;16.40;11.40;;;;;;;7.27;90.14;100045.13;5075209;28;21878;-89
2021/12/16 08:21:02;;;;;;;16.27;10.50;;;;;;;7.26;89.46;100059.00;5060780;28;20622;-89
2021/12/16 08:23:34;;;;;;;16.60;11.00;;;;;;;7.28;89.97;100051.19;5070210;28;20634;-89
2021/12/16 08:26:03;;;;;;;25.67;17.07;;;;;;;7.32;90.21;100045.88;5057630;28;20644;-90
2021/12/16 08:28:31;;;;;;;26.13;16.30;;;;;;;7.35;89.17;100051.00;5093683;28;20723;-91
2021/12/16 08:31:00;;;;;;;21.00;12.23;;;;;;;7.38;89.72;100044.88;5089790;28;20622;-89
2021/12/16 08:33:28;;;;;;;16.93;11.23;;;;;;;7.40;89.89;100062.13;5061453;28;20621;-87
2021/12/16 08:35:57;;;;;;;20.30;13.70;;;;;;;7.43;89.95;100066.34;5081112;28;20629;-88
2021/12/16 08:38:26;;;;;;;19.17;11.67;;;;;;;7.44;89.88;100066.31;5096151;28;20662;-87
2021/12/16 08:41:01;;;;;;;19.53;11.27;;;;;;;7.43;89.39;100067.22;5062124;28;20661;-88
2021/12/16 08:43:29;;;;;;;15.70;10.13;;;;;;;7.46;89.95;100068.88;5082501;28;20629;-88
2021/12/16 08:46:01;;;;;;;19.53;11.03;;;;;;;7.46;89.18;100074.06;5096503;28;20991;-88
2021/12/16 08:48:29;;;;;;;18.57;11.00;;;;;;;7.48;89.98;100061.94;5080605;28;20637;-86
2021/12/16 08:50:58;;;;;;;16.80;10.63;;;;;;;7.51;88.81;100076.53;5078528;28;20642;-87
2021/12/16 08:53:26;;;;;;;19.83;11.03;;;;;;;7.52;88.74;100069.59;5077136;28;20756;-90
2021/12/16 08:55:56;;;;;;;20.90;11.17;;;;;;;7.52;88.39;100072.19;5075684;28;20660;-88
2021/12/16 08:58:26;;;;;;;18.67;12.03;;;;;;;7.52;88.27;100075.66;5093732;27;20657;-88
2021/12/16 09:00:58;;;;;;;17.90;10.87;;;;;;;7.51;88.65;100073.09;5062086;28;20650;-88
2021/12/16 09:03:28;;;;;;;15.57;9.50;;;;;;;7.54;88.26;100071.25;5077823;27;21030;-88
2021/12/16 09:05:56;;;;;;;15.07;10.13;;;;;;;7.57;89.10;100071.19;5080048;28;20629;-88
2021/12/16 09:08:25;;;;;;;19.03;11.27;;;;;;;7.58;88.88;100066.88;5061823;28;20633;-86
2021/12/16 09:10:54;;;;;;;16.83;11.00;;;;;;;7.60;89.17;100072.84;5075467;28;20824;-89
2021/12/16 09:13:25;;;;;;;18.00;10.80;;;;;;;7.62;87.95;100084.03;5077313;28;20642;-87
2021/12/16 09:16:00;;;;;;;16.07;10.20;;;;;;;7.60;87.27;100088.44;5078391;28;20627;-88
2021/12/16 09:18:32;;;;;;;16.37;10.53;;;;;;;7.61;88.50;100085.81;5073881;28;20655;-89
2021/12/16 09:21:03;;;;;;;16.70;9.50;;;;;;;7.61;87.52;100093.59;5084014;28;20708;-88
2021/12/16 09:23:39;;;;;;;14.47;10.13;;;;;;;7.64;88.61;100096.13;5090945;28;20692;-89
2021/12/16 09:26:09;;;;;;;15.83;10.57;;;;;;;7.66;87.26;100098.66;5077046;28;20640;-88
2021/12/16 09:28:39;;;;;;;16.37;10.43;;;;;;;7.70;87.15;100100.31;5080607;28;20635;-88
2021/12/16 09:31:12;;;;;;;15.17;10.77;;;;;;;7.74;88.46;100099.31;5075431;28;20647;-87
2021/12/16 09:33:44;;;;;;;17.43;11.07;;;;;;;7.76;86.77;100105.34;5099605;28;21204;-88
2021/12/16 09:36:14;;;;;;;16.77;10.63;;;;;;;7.77;86.82;100099.25;5074823;28;20640;-88
2021/12/16 09:38:44;;;;;;;17.70;11.60;;;;;;;7.82;87.45;100094.78;5080598;28;20658;-89
2021/12/16 09:41:13;;;;;;;19.73;11.93;;;;;;;7.88;88.10;100102.41;5062535;28;21076;-90
2021/12/16 09:43:48;;;;;;;19.83;11.20;;;;;;;7.93;87.04;100100.56;5068149;28;20638;-90
2021/12/16 09:46:20;;;;;;;18.40;11.57;;;;;;;7.96;87.92;100105.69;5078931;28;20622;-91
2021/12/16 09:48:49;;;;;;;21.53;14.20;;;;;;;7.97;87.42;100103.91;5067315;28;20716;-91
2021/12/16 09:51:22;;;;;;;17.73;13.10;;;;;;;8.01;86.51;100109.84;5082586;28;20786;-89
2021/12/16 09:53:55;;;;;;;19.63;12.53;;;;;;;8.07;86.93;100118.38;5089879;28;20212;-91
2021/12/16 09:56:29;;;;;;;18.83;11.97;;;;;;;8.14;86.91;100109.53;5068985;28;20652;-90
2021/12/16 09:59:00;;;;;;;17.10;11.53;;;;;;;8.17;86.76;100111.22;5077145;28;20648;-90
2021/12/16 10:01:29;;;;;;;18.50;11.73;;;;;;;8.19;86.72;100105.06;5077243;28;20678;-90
2021/12/16 10:04:02;;;;;;;17.70;11.10;;;;;;;8.22;86.52;100104.97;5064205;28;21046;-90
2021/12/16 10:06:36;;;;;;;19.20;10.50;;;;;;;8.24;86.82;100113.63;5077686;28;21024;-91
2021/12/16 10:09:08;;;;;;;18.77;10.83;;;;;;;8.26;87.09;100117.00;5087696;28;20631;-90
2021/12/16 10:11:38;;;;;;;17.30;11.10;;;;;;;8.27;87.11;100107.47;5082680;28;20641;-90
2021/12/16 10:14:20;;;;;;;18.50;10.17;;;;;;;8.28;86.29;100115.22;5069876;28;20629;-90
2021/12/16 10:19:36;;;;;;;14.83;10.40;;;;;;;8.30;87.19;100113.44;5081470;28;20647;-90
2021/12/16 10:22:16;;;;;;;15.43;10.37;;;;;;;8.32;86.58;100101.25;5079235;28;20660;-90
2021/12/16 10:24:45;;;;;;;16.07;11.20;;;;;;;8.36;86.14;100102.88;5085436;28;20635;-90
2021/12/16 10:27:17;;;;;;;15.70;10.20;;;;;;;8.38;86.13;100106.28;5062099;28;20638;-91
2021/12/16 10:29:49;;;;;;;17.90;11.53;;;;;;;8.43;86.62;100108.75;5069424;28;20634;-90
2021/12/16 10:32:41;;;;;;;17.70;10.80;;;;;;;8.45;86.65;100110.44;5062561;28;20648;-90
2021/12/16 10:35:13;;;;;;;16.03;10.80;;;;;;;8.43;85.60;100103.56;5068535;28;20653;-90
2021/12/16 10:37:44;;;;;;;14.30;9.70;;;;;;;8.43;85.28;100104.41;5066813;28;20703;-90
2021/12/16 10:40:34;;;;;;;19.53;13.03;;;;;;;8.44;85.70;100100.06;5069474;28;20659;-90
2021/12/16 10:43:05;;;;;;;17.93;11.30;;;;;;;8.44;85.29;100101.75;5063259;28;20641;-91
2021/12/16 10:45:37;;;;;;;17.97;11.47;;;;;;;8.45;86.05;100100.88;5065978;28;20638;-91
2021/12/16 10:48:18;;;;;;;21.03;12.10;;;;;;;8.51;85.42;100107.66;5064724;28;20709;-91
2021/12/16 10:50:52;;;;;;;17.77;10.80;;;;;;;8.51;84.94;100112.88;5085192;28;20640;-91
2021/12/16 10:53:59;;;;;;;16.90;11.30;;;;;;;8.47;85.73;100106.03;5072263;28;21205;-91
2021/12/16 10:56:30;;;;;;;17.73;11.40;;;;;;;8.45;85.77;100097.44;5062448;28;20639;-90
2021/12/16 10:59:01;;;;;;;15.40;10.33;;;;;;;8.48;86.06;100108.59;5061387;28;20634;-91
2021/12/16 11:01:40;;;;;;;16.97;10.77;;;;;;;8.52;86.38;100104.16;5068400;28;20627;-90
2021/12/16 11:04:13;;;;;;;21.33;11.27;;;;;;;8.50;84.95;100116.34;5076725;28;21253;-91
2021/12/16 11:06:44;;;;;;;22.20;17.47;;;;;;;8.52;84.80;100111.94;5056327;28;20663;-89
2021/12/16 11:09:27;;;;;;;15.60;11.00;;;;;;;8.56;84.88;100113.59;5062780;28;22319;-90
2021/12/16 11:12:44;;;;;;;18.77;11.77;;;;;;;8.56;85.40;100106.63;5066781;28;20628;-88
2021/12/16 11:15:16;;;;;;;16.97;10.90;;;;;;;8.60;85.68;100108.25;5081907;28;20644;-89
2021/12/16 11:17:48;;;;;;;17.47;12.47;;;;;;;8.63;84.70;100102.97;5069399;28;20752;-91
2021/12/16 11:20:24;;;;;;;18.37;11.67;;;;;;;8.63;85.45;100097.75;5085838;28;20651;-90
2021/12/16 11:22:56;;;;;;;16.40;12.07;;;;;;;8.65;85.56;100087.31;5066451;28;20633;-90
2021/12/16 11:25:27;;;;;;;17.30;12.00;;;;;;;8.65;84.71;100090.75;5068248;28;20733;-90
2021/12/16 11:27:58;;;;;;;17.30;12.03;;;;;;;8.70;85.20;100093.22;5071928;28;20623;-90
2021/12/16 11:30:34;;;;;;;20.10;11.50;;;;;;;8.72;85.41;100094.91;5066894;28;20658;-91
2021/12/16 11:33:19;;;;;;;49.33;29.60;;;;;;;8.74;85.85;100100.06;5078611;28;20655;-91
2021/12/16 11:35:57;;;;;;;25.03;15.00;;;;;;;8.75;84.70;100096.53;5090132;28;21197;-90
2021/12/16 11:38:30;;;;;;;17.40;11.57;;;;;;;8.78;84.68;100083.44;5081972;28;20644;-91
2021/12/16 11:41:13;;;;;;;18.63;11.60;;;;;;;8.80;84.42;100089.47;5074365;28;21311;-89
2021/12/16 11:43:48;;;;;;;22.50;14.37;;;;;;;8.80;84.41;100094.69;5069550;28;20689;-90
2021/12/16 11:46:21;;;;;;;17.67;10.93;;;;;;;8.83;85.15;100098.03;5072055;28;21017;-90
2021/12/16 11:49:21;;;;;;;15.10;9.90;;;;;;;8.83;84.03;100097.19;5086254;28;20633;-88
2021/12/16 11:51:52;;;;;;;16.50;11.40;;;;;;;8.85;83.88;100103.19;5059062;28;20737;-89
2021/12/16 11:54:24;;;;;;;15.60;10.30;;;;;;;8.89;84.25;100102.22;5065647;28;20918;-88
2021/12/16 11:56:55;;;;;;;14.00;9.70;;;;;;;8.92;82.86;100094.31;5096286;28;20295;-89
2021/12/16 11:59:26;;;;;;;15.80;10.40;;;;;;;8.93;83.76;100083.88;5063561;28;20647;-89
2021/12/16 12:01:55;;;;;;;12.73;9.17;;;;;;;8.95;84.02;100082.91;5077322;28;20750;-89
2021/12/16 12:04:32;;;;;;;15.90;9.87;;;;;;;9.01;84.32;100080.13;5064730;28;21127;-89
2021/12/16 12:07:02;;;;;;;14.37;9.13;;;;;;;9.05;84.21;100081.75;5071515;28;20668;-89
2021/12/16 12:09:37;;;;;;;15.33;10.17;;;;;;;9.09;84.08;100083.31;5099680;28;21185;-89
2021/12/16 12:12:06;;;;;;;14.33;9.73;;;;;;;9.10;84.85;100079.00;5071527;28;20696;-89
2021/12/16 12:14:36;;;;;;;14.30;9.63;;;;;;;9.14;84.61;100077.97;5083349;28;21664;-89
2021/12/16 12:17:08;;;;;;;13.93;9.60;;;;;;;9.14;84.29;100072.78;5085870;28;21035;-89
2021/12/16 12:19:44;;;;;;;13.10;9.20;;;;;;;9.14;83.98;100075.38;5088755;28;20763;-89
2021/12/16 12:22:13;;;;;;;21.77;15.90;;;;;;;9.14;83.77;100068.44;5079216;28;20624;-89
2021/12/16 12:24:45;;;;;;;14.00;9.50;;;;;;;9.18;84.04;100067.44;5064757;28;21181;-89
2021/12/16 12:27:16;;;;;;;17.17;10.30;;;;;;;9.20;84.01;100063.06;5100069;28;20732;-89
2021/12/16 12:29:48;;;;;;;14.37;10.37;;;;;;;9.21;84.77;100061.28;5081847;28;21248;-88
2021/12/16 12:32:19;;;;;;;14.87;10.40;;;;;;;9.25;84.60;100062.91;5086023;28;20781;-89
2021/12/16 12:34:54;;;;;;;15.43;10.73;;;;;;;9.25;83.81;100058.53;5066560;28;20696;-88
2021/12/16 12:37:25;;;;;;;13.73;9.93;;;;;;;9.28;83.90;100057.59;5067356;28;20639;-89
2021/12/16 12:39:56;;;;;;;14.67;10.60;;;;;;;9.31;83.92;100060.94;5070104;28;20753;-88
2021/12/16 12:42:24;;;;;;;14.80;10.10;;;;;;;9.37;83.42;100067.69;5070354;28;20938;-89
2021/12/16 12:44:52;;;;;;;13.73;10.40;;;;;;;9.37;83.34;100054.69;5069480;28;20633;-88
2021/12/16 12:47:23;;;;;;;14.67;10.17;;;;;;;9.30;83.00;100054.03;5087966;28;20698;-89
2021/12/16 12:49:53;;;;;;;13.17;10.40;;;;;;;9.31;83.02;100047.94;5066024;27;20714;-89
2021/12/16 12:52:26;;;;;;;15.80;11.50;;;;;;;9.36;83.16;100056.44;5064449;28;21312;-89
2021/12/16 12:55:03;;;;;;;17.20;12.70;;;;;;;9.38;83.28;100060.72;5080554;28;20636;-89
2021/12/16 12:57:34;;;;;;;15.13;10.90;;;;;;;9.37;82.49;100055.56;5078876;28;20647;-89
2021/12/16 13:00:05;;;;;;;14.40;10.77;;;;;;;9.34;83.19;100053.03;5080517;28;21037;-89
2021/12/16 13:02:36;;;;;;;19.17;11.10;;;;;;;9.38;83.33;100056.38;5101257;28;20652;-89
2021/12/16 13:05:09;;;;;;;17.07;11.60;;;;;;;9.40;83.39;100063.25;5067405;28;20645;-90
2021/12/16 13:07:39;;;;;;;18.80;12.30;;;;;;;9.43;83.42;100064.00;5084120;28;20656;-90
2021/12/16 13:10:11;;;;;;;16.93;11.83;;;;;;;9.44;83.36;100054.44;5080751;28;20692;-90
2021/12/16 13:12:45;;;;;;;15.20;10.77;;;;;;;9.48;83.33;100066.47;5072429;28;20663;-90
2021/12/16 13:15:33;;;;;;;14.90;10.43;;;;;;;9.50;83.08;100060.31;5099664;27;20678;-90
2021/12/16 13:23:58;;;;;;;16.43;11.00;;;;;;;9.56;82.97;100064.44;5100489;28;21089;-89
2021/12/16 13:26:36;;;;;;;15.33;11.30;;;;;;;9.55;83.03;100070.59;5083393;27;20630;-90
2021/12/16 13:29:12;;;;;;;17.85;13.20;;;;;;;9.58;82.83;100057.47;5083437;28;20809;-90
2021/12/16 13:31:50;;;;;;;16.40;12.13;;;;;;;9.61;82.50;100065.16;5065827;28;20234;-90
2021/12/16 13:34:36;;;;;;;16.67;12.13;;;;;;;9.64;82.96;100063.31;5105367;28;21074;-89
2021/12/16 13:37:19;;;;;;;16.80;12.40;;;;;;;9.62;82.38;100059.03;5085565;28;20749;-89